Time;durP1;ratioP1;P1;durP2;ratioP2;P2;SDS_P1;SDS_P2;PMS_P1;PMS_P2;Temp;Humidity;BMP_temperature;BMP_pressure;BME280_temperature;BME280_humidity;BME280_pressure;Samples;Min_cycle;Max_cycle;Signal;HPM_P1;HPM_P2
2023/12/29 00:02:15;;;;;;;6.15;2.00;;;11.70;99.90;;;;;;5076771;28;20103;-69
2023/12/29 00:04:42;;;;;;;1.75;0.40;;;11.70;99.90;;;;;;5058784;28;20385;-69
2023/12/29 00:07:08;;;;;;;0.70;0.43;;;11.70;99.90;;;;;;5069761;28;20033;-70
2023/12/29 00:09:40;;;;;;;3.67;1.17;;;11.60;99.90;;;;;;5069779;28;20036;-68
2023/12/29 00:12:07;;;;;;;20.77;2.53;;;11.70;99.90;;;;;;5076107;28;20052;-69
2023/12/29 00:14:33;;;;;;;1.75;0.63;;;11.50;99.90;;;;;;5076591;28;20373;-68
2023/12/29 00:17:00;;;;;;;2.90;1.00;;;11.50;99.90;;;;;;5076442;28;20401;-69
2023/12/29 00:19:26;;;;;;;0.52;0.30;;;11.40;99.90;;;;;;5076695;28;20027;-70
2023/12/29 00:21:51;;;;;;;10.75;1.50;;;11.40;99.90;;;;;;5076020;28;20040;-68
2023/12/29 00:24:17;;;;;;;10.82;1.95;;;11.40;99.90;;;;;;5076616;28;20024;-69
2023/12/29 00:26:43;;;;;;;5.78;0.90;;;11.40;99.90;;;;;;5058041;28;20533;-70
2023/12/29 00:29:09;;;;;;;5.07;0.73;;;11.40;99.90;;;;;;5076333;28;20028;-69
2023/12/29 00:31:35;;;;;;;2.97;1.15;;;11.30;99.90;;;;;;5076320;28;20077;-68
2023/12/29 00:34:01;;;;;;;3.78;0.75;;;11.20;99.90;;;;;;5076029;28;20021;-70
2023/12/29 00:36:26;;;;;;;6.30;1.83;;;11.20;99.90;;;;;;5076170;28;20476;-70
2023/12/29 00:38:52;;;;;;;1.10;0.40;;;11.20;99.90;;;;;;5076246;28;20031;-68
2023/12/29 00:41:18;;;;;;;4.20;0.90;;;11.10;99.90;;;;;;5075707;28;20108;-69
2023/12/29 00:43:44;;;;;;;6.70;1.40;;;11.10;99.90;;;;;;5058082;28;20021;-68
2023/12/29 00:46:10;;;;;;;8.88;0.95;;;11.20;99.90;;;;;;5075703;28;20016;-68
2023/12/29 00:48:35;;;;;;;8.80;1.73;;;11.20;99.90;;;;;;5076037;28;20024;-69
2023/12/29 00:51:03;;;;;;;3.80;1.55;;;11.10;99.90;;;;;;5075743;28;20469;-70
2023/12/29 00:53:31;;;;;;;2.42;2.28;;;11.10;99.90;;;;;;5058136;28;20139;-69
2023/12/29 00:55:58;;;;;;;12.25;3.35;;;11.20;99.90;;;;;;5075650;28;20040;-69
2023/12/29 00:58:24;;;;;;;9.65;1.33;;;11.10;99.90;;;;;;5075741;28;20017;-68
2023/12/29 01:00:50;;;;;;;0.50;0.50;;;11.10;99.90;;;;;;5075691;28;20037;-69
2023/12/29 01:03:16;;;;;;;9.82;1.17;;;11.10;99.90;;;;;;5057531;28;20029;-68
2023/12/29 01:05:42;;;;;;;3.92;1.52;;;11.10;99.90;;;;;;5057727;28;20016;-69
2023/12/29 01:08:07;;;;;;;3.25;0.68;;;11.10;99.90;;;;;;5057332;28;20023;-70
2023/12/29 01:10:35;;;;;;;0.73;0.73;;;11.10;99.90;;;;;;5057559;28;20032;-69
2023/12/29 01:13:01;;;;;;;4.43;1.10;;;11.20;99.90;;;;;;5075249;28;20124;-68
2023/12/29 01:15:28;;;;;;;2.30;1.15;;;11.20;99.90;;;;;;5057269;28;20044;-69
2023/12/29 01:17:54;;;;;;;2.72;0.82;;;11.20;99.90;;;;;;5075546;28;20024;-69
2023/12/29 01:20:20;;;;;;;5.95;1.35;;;11.10;99.90;;;;;;5057429;28;20388;-69
2023/12/29 01:22:45;;;;;;;11.73;2.10;;;11.30;99.90;;;;;;5057365;28;20107;-68
2023/12/29 01:25:11;;;;;;;3.40;0.95;;;11.30;99.90;;;;;;5056917;28;20032;-67
2023/12/29 01:27:37;;;;;;;9.60;0.80;;;11.30;99.90;;;;;;5075305;28;20028;-69
2023/12/29 01:30:04;;;;;;;1.73;0.60;;;11.30;99.90;;;;;;5075322;28;20154;-69
2023/12/29 01:32:30;;;;;;;6.00;1.55;;;11.30;99.90;;;;;;5067459;22;20486;-69
2023/12/29 01:34:56;;;;;;;6.95;0.93;;;11.30;99.90;;;;;;5115997;28;20169;-68
2023/12/29 01:37:22;;;;;;;9.23;1.52;;;11.20;99.90;;;;;;5114280;28;20030;-68
2023/12/29 01:39:47;;;;;;;4.60;0.63;;;11.30;99.90;;;;;;5115627;28;20029;-68
2023/12/29 01:42:13;;;;;;;3.40;0.93;;;11.30;99.90;;;;;;5114461;28;20395;-69
2023/12/29 01:44:39;;;;;;;1.27;0.32;;;11.30;99.90;;;;;;5114288;28;20046;-68
2023/12/29 01:47:15;;;;;;;3.80;1.27;;;11.30;99.90;;;;;;5097498;28;20472;-68
2023/12/29 01:49:43;;;;;;;5.70;1.02;;;11.30;99.90;;;;;;5114397;28;20031;-70
2023/12/29 01:52:14;;;;;;;4.93;1.83;;;11.20;99.90;;;;;;5115774;28;20035;-68
2023/12/29 01:54:42;;;;;;;9.25;1.10;;;11.20;99.90;;;;;;5097153;28;20039;-70
2023/12/29 01:57:08;;;;;;;4.35;1.00;;;11.20;99.90;;;;;;5114338;28;20074;-68
2023/12/29 01:59:38;;;;;;;7.30;1.63;;;11.20;99.90;;;;;;5115245;28;20049;-69
2023/12/29 02:02:05;;;;;;;9.20;2.00;;;11.30;99.90;;;;;;5115280;28;20498;-69
2023/12/29 02:04:31;;;;;;;5.82;1.15;;;11.30;99.90;;;;;;5096784;28;20023;-68
2023/12/29 02:06:57;;;;;;;0.95;0.30;;;11.20;99.90;;;;;;5113611;28;20016;-70
2023/12/29 02:09:25;;;;;;;9.52;0.98;;;11.30;99.90;;;;;;5091268;28;20025;-69
2023/12/29 02:11:51;;;;;;;3.50;1.20;;;11.30;99.90;;;;;;5096211;28;20035;-69
2023/12/29 02:14:18;;;;;;;2.10;0.57;;;11.20;99.90;;;;;;5114796;28;20023;-69
2023/12/29 02:17:05;;;;;;;4.05;1.00;;;11.30;99.90;;;;;;5111509;28;20031;-69
2023/12/29 02:19:43;;;;;;;4.65;1.38;;;11.20;99.90;;;;;;5103915;28;20024;-69
2023/12/29 02:22:10;;;;;;;14.48;1.92;;;11.20;99.90;;;;;;5114717;28;20384;-68
2023/12/29 02:24:38;;;;;;;11.68;4.47;;;11.10;99.90;;;;;;5113436;28;20032;-70
2023/12/29 02:27:24;;;;;;;3.13;1.55;;;11.10;99.90;;;;;;5113451;28;20020;-70
2023/12/29 02:30:10;;;;;;;7.70;1.05;;;11.10;99.90;;;;;;5114692;28;20081;-68
2023/12/29 02:32:40;;;;;;;13.88;1.75;;;11.10;99.90;;;;;;5114347;28;20039;-69
2023/12/29 02:35:10;;;;;;;5.78;1.40;;;11.10;99.90;;;;;;5113170;28;20047;-68
2023/12/29 02:37:38;;;;;;;3.63;0.88;;;11.10;99.90;;;;;;5113098;28;20049;-70
2023/12/29 02:40:05;;;;;;;10.75;1.30;;;11.10;99.90;;;;;;5113864;28;20019;-70
2023/12/29 02:42:31;;;;;;;7.70;1.83;;;11.10;99.90;;;;;;5113550;28;20460;-69
2023/12/29 02:44:57;;;;;;;13.77;1.30;;;11.20;99.90;;;;;;5113291;28;20051;-69
2023/12/29 02:47:23;;;;;;;14.50;3.20;;;11.20;99.90;;;;;;5114942;28;20035;-69
2023/12/29 02:49:50;;;;;;;5.25;1.38;;;11.20;99.90;;;;;;5114185;27;20031;-68
2023/12/29 02:52:16;;;;;;;9.38;3.53;;;11.10;99.90;;;;;;5103705;28;20024;-69
2023/12/29 02:54:42;;;;;;;4.05;0.57;;;11.20;99.90;;;;;;5110910;28;20420;-70
2023/12/29 02:57:07;;;;;;;4.35;0.93;;;11.10;99.90;;;;;;5114287;28;20466;-70
2023/12/29 02:59:34;;;;;;;7.95;1.50;;;11.20;99.90;;;;;;5114163;28;20036;-70
2023/12/29 03:02:00;;;;;;;0.63;0.40;;;11.10;99.90;;;;;;5099525;28;20375;-70
2023/12/29 03:04:27;;;;;;;15.13;1.15;;;11.00;99.90;;;;;;5081872;28;20026;-70
2023/12/29 03:06:53;;;;;;;1.08;0.70;;;11.00;99.90;;;;;;5113947;28;20114;-70
2023/12/29 03:09:19;;;;;;;4.40;1.15;;;11.00;99.90;;;;;;5106082;28;20055;-72
2023/12/29 03:11:46;;;;;;;24.23;2.03;;;11.10;99.90;;;;;;5094705;28;20031;-69
2023/12/29 03:14:12;;;;;;;0.65;0.40;;;11.00;99.90;;;;;;5105442;28;20648;-69
2023/12/29 03:16:37;;;;;;;11.30;1.52;;;11.10;99.90;;;;;;5106090;28;20038;-69
2023/12/29 03:19:03;;;;;;;17.15;2.05;;;11.00;99.90;;;;;;5102443;28;20032;-69
2023/12/29 03:21:29;;;;;;;9.48;0.88;;;11.10;99.90;;;;;;5077651;28;20059;-69
2023/12/29 03:23:55;;;;;;;6.80;1.27;;;11.10;99.90;;;;;;5102679;28;20111;-71
2023/12/29 03:26:21;;;;;;;17.35;1.70;;;11.00;99.90;;;;;;5112402;28;20067;-69
2023/12/29 03:28:47;;;;;;;11.43;1.02;;;11.10;99.90;;;;;;5100490;28;20102;-70
2023/12/29 03:31:12;;;;;;;7.10;1.20;;;11.00;99.90;;;;;;5113738;28;20131;-70
2023/12/29 03:33:40;;;;;;;8.07;1.80;;;11.00;99.90;;;;;;5112124;28;20020;-69
2023/12/29 03:36:07;;;;;;;8.15;1.58;;;11.00;99.90;;;;;;5113087;28;20067;-69
2023/12/29 03:38:34;;;;;;;5.05;1.23;;;10.90;99.90;;;;;;5113631;28;20472;-69
2023/12/29 03:41:00;;;;;;;4.30;1.33;;;10.90;99.90;;;;;;5112130;28;20043;-70
2023/12/29 03:43:26;;;;;;;5.78;0.65;;;11.10;99.90;;;;;;5112107;28;20120;-70
2023/12/29 03:45:53;;;;;;;2.78;1.70;;;11.00;99.90;;;;;;5091794;28;20012;-70
2023/12/29 03:48:19;;;;;;;2.55;0.52;;;10.90;99.90;;;;;;5105268;28;20123;-69
2023/12/29 03:50:45;;;;;;;12.68;2.55;;;10.90;99.90;;;;;;5113188;28;20024;-69
2023/12/29 03:53:11;;;;;;;4.00;1.25;;;10.90;99.90;;;;;;5112144;28;20046;-70
2023/12/29 03:55:37;;;;;;;2.13;0.65;;;10.90;99.90;;;;;;5113115;28;20032;-69
2023/12/29 03:58:03;;;;;;;15.68;2.42;;;10.90;99.90;;;;;;5112132;28;20430;-70
2023/12/29 04:00:29;;;;;;;2.35;0.93;;;10.90;99.90;;;;;;5113066;28;20035;-69
2023/12/29 04:02:55;;;;;;;2.97;0.93;;;10.80;99.90;;;;;;5113161;28;20024;-70
2023/12/29 04:05:21;;;;;;;6.05;0.75;;;10.80;99.90;;;;;;5112052;28;20036;-70
2023/12/29 04:07:46;;;;;;;2.65;1.55;;;10.80;99.90;;;;;;5113394;28;20023;-69
2023/12/29 04:10:12;;;;;;;3.65;0.10;;;10.80;99.90;;;;;;5113245;28;20502;-69
2023/12/29 04:12:38;;;;;;;1.30;0.52;;;10.80;99.90;;;;;;5112905;28;20016;-70
2023/12/29 04:15:04;;;;;;;4.97;0.80;;;10.80;99.90;;;;;;5111816;28;20050;-70
2023/12/29 04:17:30;;;;;;;5.15;1.50;;;10.80;99.90;;;;;;5110823;28;20028;-69
2023/12/29 04:19:56;;;;;;;0.45;0.32;;;10.80;99.90;;;;;;5099405;28;20516;-70
2023/12/29 04:22:22;;;;;;;6.90;1.38;;;10.80;99.90;;;;;;5092231;28;20013;-69
2023/12/29 04:24:48;;;;;;;10.52;0.65;;;10.80;99.90;;;;;;5087762;28;20046;-69
2023/12/29 04:27:15;;;;;;;1.58;0.57;;;10.90;99.90;;;;;;5088416;28;20059;-70
2023/12/29 04:29:41;;;;;;;8.13;2.35;;;10.90;99.90;;;;;;5087407;28;20036;-69
2023/12/29 04:32:06;;;;;;;5.28;1.05;;;10.90;99.90;;;;;;5090949;28;20035;-70
2023/12/29 04:34:32;;;;;;;3.30;0.93;;;10.90;99.90;;;;;;5092347;28;20032;-70
2023/12/29 04:36:58;;;;;;;10.07;1.92;;;10.90;99.90;;;;;;5098060;28;20498;-69
2023/12/29 04:39:26;;;;;;;5.93;0.63;;;11.00;99.90;;;;;;5092516;28;20030;-70
2023/12/29 04:41:51;;;;;;;6.35;1.33;;;11.00;99.90;;;;;;5093243;28;20110;-69
2023/12/29 04:44:17;;;;;;;1.55;0.80;;;10.90;99.90;;;;;;5096072;28;20042;-69
2023/12/29 04:46:44;;;;;;;7.35;0.93;;;10.90;99.90;;;;;;5092882;28;20025;-70
2023/12/29 04:49:10;;;;;;;0.52;0.20;;;10.90;99.90;;;;;;5089542;28;20036;-71
2023/12/29 04:51:36;;;;;;;1.33;1.23;;;10.90;99.90;;;;;;5096091;28;20077;-69
2023/12/29 04:54:02;;;;;;;8.48;1.85;;;11.00;99.90;;;;;;5096229;28;20032;-70
2023/12/29 04:56:28;;;;;;;1.58;0.50;;;11.00;99.90;;;;;;5100613;28;20042;-70
2023/12/29 04:58:54;;;;;;;2.00;0.55;;;11.00;99.90;;;;;;5096604;28;20020;-69
2023/12/29 05:01:19;;;;;;;5.90;1.17;;;11.00;99.90;;;;;;5095771;28;20437;-71
2023/12/29 05:03:45;;;;;;;5.78;1.75;;;11.00;99.90;;;;;;5095734;28;20012;-69
2023/12/29 05:06:11;;;;;;;2.30;0.65;;;11.10;99.90;;;;;;5085727;28;20530;-69
2023/12/29 05:08:37;;;;;;;4.03;0.55;;;11.10;99.90;;;;;;5095721;28;20103;-69
2023/12/29 05:11:03;;;;;;;0.10;0.10;;;11.00;99.90;;;;;;5096002;28;20531;-70
2023/12/29 05:13:29;;;;;;;5.38;1.00;;;11.10;99.90;;;;;;5095489;28;20027;-70
2023/12/29 05:15:55;;;;;;;3.70;1.35;;;11.10;99.90;;;;;;5095434;28;20040;-70
2023/12/29 05:18:21;;;;;;;12.13;1.30;;;11.10;99.90;;;;;;5095246;28;20031;-70
2023/12/29 05:20:47;;;;;;;8.05;2.55;;;11.00;99.90;;;;;;5108590;28;20027;-70
2023/12/29 05:23:13;;;;;;;15.00;2.58;;;11.00;99.90;;;;;;5101524;28;20027;-69
2023/12/29 05:25:39;;;;;;;1.30;0.38;;;10.90;99.90;;;;;;5116058;28;20030;-70
2023/12/29 05:28:05;;;;;;;16.75;2.53;;;11.00;99.90;;;;;;5115945;27;20031;-69
2023/12/29 05:30:32;;;;;;;5.70;0.90;;;11.00;99.90;;;;;;5115817;28;20027;-70
2023/12/29 05:32:58;;;;;;;2.30;1.13;;;11.00;99.90;;;;;;5115434;28;20035;-70
2023/12/29 05:35:23;;;;;;;5.05;1.08;;;11.00;99.90;;;;;;5115861;28;20035;-70
2023/12/29 05:37:50;;;;;;;3.10;0.70;;;11.00;99.90;;;;;;5115742;28;20046;-70
2023/12/29 05:40:16;;;;;;;4.00;1.40;;;11.00;99.90;;;;;;5115946;27;20024;-69
2023/12/29 05:42:42;;;;;;;8.00;1.27;;;11.10;99.90;;;;;;5115174;28;20028;-69
2023/12/29 05:45:08;;;;;;;4.35;1.42;;;11.00;99.90;;;;;;5096975;28;20028;-71
2023/12/29 05:47:34;;;;;;;6.22;0.30;;;10.90;99.90;;;;;;5105489;28;20111;-70
2023/12/29 05:50:00;;;;;;;0.25;0.10;;;10.90;99.90;;;;;;5111668;28;20444;-69
2023/12/29 05:52:25;;;;;;;0.52;0.25;;;10.80;99.90;;;;;;5091372;28;20065;-70
2023/12/29 05:54:51;;;;;;;10.32;1.75;;;10.80;99.90;;;;;;5113938;28;20024;-70
2023/12/29 05:57:17;;;;;;;0.93;0.55;;;10.90;99.90;;;;;;5097373;28;20023;-70
2023/12/29 05:59:44;;;;;;;2.90;0.88;;;11.00;99.90;;;;;;5115140;28;20081;-70
2023/12/29 06:02:09;;;;;;;3.30;0.90;;;10.90;99.90;;;;;;5115259;28;20056;-70
2023/12/29 06:04:35;;;;;;;0.93;0.65;;;10.90;99.90;;;;;;5114832;28;20083;-69
2023/12/29 06:07:02;;;;;;;4.50;0.98;;;11.00;99.90;;;;;;5115174;27;20023;-70
2023/12/29 06:09:27;;;;;;;2.42;0.30;;;11.00;99.90;;;;;;5115259;28;20035;-69
2023/12/29 06:11:54;;;;;;;3.08;1.17;;;11.00;99.90;;;;;;5113834;28;20527;-70
2023/12/29 06:14:20;;;;;;;2.65;0.95;;;11.10;99.90;;;;;;5113311;28;20027;-70
2023/12/29 06:16:46;;;;;;;1.67;0.77;;;11.10;99.90;;;;;;5114960;27;20035;-70
2023/12/29 06:19:12;;;;;;;11.68;1.45;;;11.10;99.90;;;;;;5099180;28;20020;-71
2023/12/29 06:21:42;;;;;;;4.63;1.10;;;11.20;99.90;;;;;;5114947;28;20024;-69
2023/12/29 06:24:09;;;;;;;1.23;0.70;;;11.10;99.90;;;;;;5114590;28;20036;-70
2023/12/29 06:26:35;;;;;;;0.85;0.68;;;11.10;99.90;;;;;;5113332;28;20114;-69
2023/12/29 06:29:01;;;;;;;1.20;0.45;;;11.10;99.90;;;;;;5114508;28;20133;-70
2023/12/29 06:31:27;;;;;;;4.50;1.25;;;11.10;99.90;;;;;;5114627;28;20020;-70
2023/12/29 06:33:53;;;;;;;1.25;1.00;;;11.20;99.90;;;;;;5114500;28;20027;-69
2023/12/29 06:36:19;;;;;;;1.58;0.65;;;11.20;99.90;;;;;;5114444;28;20092;-70
2023/12/29 06:38:48;;;;;;;0.73;0.13;;;11.10;99.90;;;;;;5114628;27;20027;-71
2023/12/29 06:41:14;;;;;;;2.13;0.90;;;11.10;99.90;;;;;;5114726;28;20024;-70
2023/12/29 06:43:40;;;;;;;2.38;0.50;;;11.10;99.90;;;;;;5085353;28;20031;-69
2023/12/29 06:46:06;;;;;;;3.53;1.00;;;11.10;99.90;;;;;;5113216;28;20027;-69
2023/12/29 06:48:32;;;;;;;13.27;0.70;;;11.10;99.90;;;;;;5114489;28;20047;-68
2023/12/29 06:50:59;;;;;;;12.07;1.45;;;11.10;99.90;;;;;;5093971;28;20071;-70
2023/12/29 06:53:25;;;;;;;0.15;0.13;;;11.10;99.90;;;;;;5092137;28;20043;-69
2023/12/29 06:55:51;;;;;;;2.15;1.88;;;11.20;99.90;;;;;;5114145;28;20027;-70
2023/12/29 06:58:17;;;;;;;5.15;1.50;;;11.20;99.90;;;;;;5114051;28;20446;-69
2023/12/29 07:00:43;;;;;;;0.28;0.25;;;11.10;99.90;;;;;;5113124;28;20050;-69
2023/12/29 07:03:09;;;;;;;4.30;1.20;;;11.20;99.90;;;;;;5114220;28;20031;-70
2023/12/29 07:05:34;;;;;;;2.45;0.55;;;11.10;99.90;;;;;;5113561;28;20031;-71
2023/12/29 07:08:00;;;;;;;3.72;0.60;;;11.10;99.90;;;;;;5113900;28;20036;-70
2023/12/29 07:10:27;;;;;;;0.00;0.00;;;11.00;99.90;;;;;;5113928;28;20026;-69
2023/12/29 07:12:52;;;;;;;4.53;1.08;;;11.10;99.90;;;;;;5112411;28;20031;-70
2023/12/29 07:15:18;;;;;;;9.07;2.38;;;11.20;99.90;;;;;;5113689;27;20042;-70
2023/12/29 07:17:44;;;;;;;4.65;1.38;;;11.10;99.90;;;;;;5111230;28;20012;-69
2023/12/29 07:20:11;;;;;;;6.90;1.42;;;11.00;99.90;;;;;;5102129;28;20027;-71
2023/12/29 07:22:37;;;;;;;2.20;0.90;;;11.00;99.90;;;;;;5113795;28;20111;-69
2023/12/29 07:25:03;;;;;;;4.10;1.38;;;11.00;99.90;;;;;;5095439;28;20089;-70
2023/12/29 07:27:29;;;;;;;0.65;0.55;;;11.00;99.90;;;;;;5112341;28;20032;-70
2023/12/29 07:29:55;;;;;;;2.92;2.22;;;11.00;99.90;;;;;;5113626;28;20037;-70
2023/12/29 07:32:21;;;;;;;2.45;0.73;;;11.10;99.90;;;;;;5112122;28;20063;-69
2023/12/29 07:34:48;;;;;;;6.80;0.70;;;11.00;99.90;;;;;;5113328;28;20100;-70
2023/12/29 07:37:14;;;;;;;6.13;0.82;;;11.10;99.90;;;;;;5113508;28;20032;-70
2023/12/29 07:39:40;;;;;;;2.38;0.80;;;11.00;99.90;;;;;;5083940;28;20445;-70
2023/12/29 07:42:06;;;;;;;1.50;0.80;;;11.00;99.90;;;;;;5098569;28;20023;-70
2023/12/29 07:44:32;;;;;;;5.85;1.17;;;11.00;99.90;;;;;;5113511;28;20115;-70
2023/12/29 07:46:58;;;;;;;1.63;0.75;;;11.00;99.90;;;;;;5113214;28;20070;-69
2023/12/29 07:49:24;;;;;;;1.13;0.40;;;11.00;99.90;;;;;;5113474;28;20028;-70
2023/12/29 07:51:49;;;;;;;0.70;0.60;;;11.00;99.90;;;;;;5095008;28;20373;-71
2023/12/29 07:54:15;;;;;;;6.53;0.75;;;11.00;99.90;;;;;;5113231;28;20035;-70
2023/12/29 07:56:42;;;;;;;4.75;0.80;;;11.00;99.90;;;;;;5110545;28;20035;-69
2023/12/29 07:59:08;;;;;;;0.00;0.00;;;11.00;99.90;;;;;;5087802;28;20067;-70
2023/12/29 08:01:36;;;;;;;1.17;0.57;;;11.00;99.90;;;;;;5113341;28;20078;-70
2023/12/29 08:04:03;;;;;;;0.20;0.20;;;11.00;99.90;;;;;;5094181;22;20522;-69
2023/12/29 08:06:29;;;;;;;0.90;0.45;;;11.10;99.90;;;;;;5092597;28;20036;-69
2023/12/29 08:08:54;;;;;;;0.17;0.17;;;11.10;99.90;;;;;;5092476;28;20044;-71
2023/12/29 08:11:20;;;;;;;0.32;0.32;;;11.00;99.90;;;;;;5091844;28;20066;-71
2023/12/29 08:13:48;;;;;;;0.00;0.00;;;11.00;99.90;;;;;;5092472;28;20118;-70
2023/12/29 08:16:17;;;;;;;0.17;0.10;;;11.00;99.90;;;;;;5074048;28;20119;-70
2023/12/29 08:18:44;;;;;;;1.08;0.40;;;11.00;99.90;;;;;;5085435;28;20029;-69
2023/12/29 08:21:18;;;;;;;0.47;0.10;;;10.90;99.90;;;;;;5093459;28;20640;-70
2023/12/29 08:23:44;;;;;;;0.10;0.10;;;10.90;99.90;;;;;;5077632;28;20017;-70
2023/12/29 08:26:10;;;;;;;0.47;0.20;;;10.90;99.90;;;;;;5086089;28;20491;-70
2023/12/29 08:28:36;;;;;;;1.85;0.52;;;10.90;99.90;;;;;;5068672;28;20025;-71
2023/12/29 08:31:01;;;;;;;1.27;0.35;;;10.90;99.90;;;;;;5084442;28;20030;-70
2023/12/29 08:33:27;;;;;;;0.95;0.30;;;10.90;99.90;;;;;;5082543;28;20028;-69
2023/12/29 08:35:55;;;;;;;5.22;0.40;;;11.00;99.90;;;;;;5096250;28;20480;-71
2023/12/29 08:38:21;;;;;;;4.05;0.45;;;11.00;99.90;;;;;;5095969;28;20499;-69
2023/12/29 08:40:47;;;;;;;1.00;0.20;;;11.10;99.90;;;;;;5096389;28;20032;-69
2023/12/29 08:43:12;;;;;;;0.20;0.13;;;11.10;99.90;;;;;;5081746;28;20016;-72
2023/12/29 08:45:38;;;;;;;4.50;0.45;;;11.20;99.90;;;;;;5096279;28;20434;-70
2023/12/29 08:48:05;;;;;;;1.20;0.28;;;11.10;99.90;;;;;;5096219;28;20103;-71
2023/12/29 08:50:31;;;;;;;0.50;0.45;;;11.20;99.90;;;;;;5078367;28;20032;-70
2023/12/29 08:52:56;;;;;;;0.10;0.10;;;11.20;99.90;;;;;;5095713;28;20039;-71
2023/12/29 08:55:22;;;;;;;0.32;0.32;;;11.20;99.90;;;;;;5094913;28;20102;-69
2023/12/29 08:57:48;;;;;;;2.30;0.50;;;11.10;99.90;;;;;;5096259;28;20594;-70
2023/12/29 09:00:14;;;;;;;0.65;0.65;;;11.20;99.90;;;;;;5095923;28;20035;-70
2023/12/29 09:02:40;;;;;;;0.20;0.20;;;11.20;99.90;;;;;;5095777;28;20508;-70
2023/12/29 09:05:07;;;;;;;1.65;0.28;;;11.20;99.90;;;;;;5096000;28;20081;-69
2023/12/29 09:07:34;;;;;;;0.45;0.40;;;11.10;99.90;;;;;;5095702;28;20024;-69
2023/12/29 09:10:02;;;;;;;0.30;0.30;;;11.10;99.90;;;;;;5096099;28;20187;-69
2023/12/29 09:12:28;;;;;;;0.20;0.10;;;11.20;99.90;;;;;;5095471;28;20024;-70
2023/12/29 09:14:54;;;;;;;0.00;0.00;;;11.20;99.90;;;;;;5077960;28;20088;-71
2023/12/29 09:17:19;;;;;;;1.80;0.90;;;11.30;99.90;;;;;;5095543;28;20376;-69
2023/12/29 09:19:46;;;;;;;3.22;0.43;;;11.30;99.90;;;;;;5081531;28;20024;-69
2023/12/29 09:22:12;;;;;;;1.92;0.85;;;11.30;99.90;;;;;;5095438;28;20035;-69
2023/12/29 09:24:38;;;;;;;2.08;0.70;;;11.40;99.90;;;;;;5120564;22;20488;-70
2023/12/29 09:27:04;;;;;;;0.68;0.28;;;11.50;99.90;;;;;;5114948;28;20035;-69
2023/12/29 09:29:30;;;;;;;1.45;0.60;;;11.40;99.90;;;;;;5114386;28;20103;-68
2023/12/29 09:31:56;;;;;;;0.52;0.15;;;11.40;99.90;;;;;;5116060;28;20031;-69
2023/12/29 09:34:21;;;;;;;3.10;1.58;;;11.40;99.90;;;;;;5115702;28;20020;-69
2023/12/29 09:36:47;;;;;;;2.90;0.55;;;11.40;99.90;;;;;;5115566;28;20047;-69
2023/12/29 09:39:13;;;;;;;2.55;1.13;;;11.40;99.90;;;;;;5115928;28;20492;-69
2023/12/29 09:41:45;;;;;;;7.70;1.20;;;11.50;99.90;;;;;;5115635;28;20057;-70
2023/12/29 09:44:15;;;;;;;0.77;0.28;;;11.60;99.90;;;;;;5114396;28;20028;-71
2023/12/29 09:46:42;;;;;;;0.85;0.40;;;11.60;99.90;;;;;;5115542;28;20028;-69
2023/12/29 09:49:08;;;;;;;6.25;0.93;;;11.60;99.90;;;;;;5115708;28;20016;-70
2023/12/29 09:51:39;;;;;;;0.40;0.35;;;11.50;99.90;;;;;;5115143;28;20492;-69
2023/12/29 09:54:05;;;;;;;0.10;0.10;;;11.60;99.90;;;;;;5115485;28;20528;-70
2023/12/29 09:56:32;;;;;;;1.90;0.65;;;11.60;99.90;;;;;;5115476;28;20035;-69
2023/12/29 09:58:58;;;;;;;2.05;0.40;;;11.60;99.90;;;;;;5115230;28;20027;-69
2023/12/29 10:01:29;;;;;;;1.08;0.38;;;11.60;99.90;;;;;;5115401;28;20019;-70
2023/12/29 10:03:55;;;;;;;0.40;0.38;;;11.70;99.90;;;;;;5115148;27;20079;-69
2023/12/29 10:06:24;;;;;;;5.40;0.65;;;11.70;99.90;;;;;;5114945;28;20102;-70
2023/12/29 10:08:50;;;;;;;1.25;0.52;;;11.60;99.90;;;;;;5115190;28;20464;-69
2023/12/29 10:11:20;;;;;;;2.45;0.95;;;11.60;99.90;;;;;;5115203;28;20077;-70
2023/12/29 10:13:59;;;;;;;1.17;0.32;;;11.60;99.90;;;;;;5114804;28;20080;-69
2023/12/29 10:16:32;;;;;;;0.10;0.10;;;11.50;99.90;;;;;;5115154;28;20126;-69
2023/12/29 10:19:30;;;;;;;0.08;0.08;;;11.60;99.90;;;;;;5101760;28;20039;-69
2023/12/29 10:22:06;;;;;;;0.20;0.10;;;11.60;99.90;;;;;;5090960;28;20051;-69
2023/12/29 10:24:34;;;;;;;0.10;0.10;;;11.60;99.90;;;;;;5114418;28;20069;-70
2023/12/29 10:27:00;;;;;;;5.68;2.47;;;11.50;99.90;;;;;;5113834;28;20023;-70
2023/12/29 10:29:27;;;;;;;0.10;0.10;;;11.50;99.90;;;;;;5113472;28;20487;-71
2023/12/29 10:31:53;;;;;;;0.70;0.45;;;11.60;99.90;;;;;;5113724;28;20034;-69
2023/12/29 10:34:28;;;;;;;3.72;0.88;;;11.50;99.90;;;;;;5114322;28;20391;-71
2023/12/29 10:36:55;;;;;;;0.20;0.20;;;11.60;99.90;;;;;;5100823;28;20382;-69
2023/12/29 10:39:21;;;;;;;0.00;0.00;;;11.60;99.90;;;;;;5088962;27;20028;-72
2023/12/29 10:41:47;;;;;;;0.00;0.00;;;11.50;99.90;;;;;;5111284;28;20110;-70
2023/12/29 10:44:13;;;;;;;0.00;0.00;;;11.30;99.90;;;;;;5093235;28;20033;-69
2023/12/29 10:46:39;;;;;;;1.15;0.30;;;11.30;99.90;;;;;;5107101;28;20032;-70
2023/12/29 10:49:13;;;;;;;0.38;0.22;;;11.20;99.90;;;;;;5112868;28;20364;-70
2023/12/29 10:51:40;;;;;;;0.00;0.00;;;11.20;99.90;;;;;;5114255;28;20111;-70
2023/12/29 10:54:06;;;;;;;8.55;0.80;;;11.30;99.90;;;;;;5098599;28;20029;-71
2023/12/29 10:56:32;;;;;;;1.35;0.25;;;11.30;99.90;;;;;;5087779;28;20085;-69
2023/12/29 10:59:05;;;;;;;0.22;0.10;;;11.40;99.90;;;;;;5099851;28;20031;-70
2023/12/29 11:01:33;;;;;;;1.35;0.80;;;11.40;99.90;;;;;;5114296;28;20488;-70
2023/12/29 11:04:03;;;;;;;3.58;0.75;;;11.50;99.90;;;;;;5113770;28;20130;-71
2023/12/29 11:06:39;;;;;;;6.35;0.38;;;11.60;99.90;;;;;;5114077;28;20067;-71
2023/12/29 11:09:05;;;;;;;1.08;0.38;;;11.70;99.90;;;;;;5114138;28;20023;-70
2023/12/29 11:11:35;;;;;;;1.17;0.65;;;11.70;99.90;;;;;;5113876;27;20077;-69
2023/12/29 11:14:03;;;;;;;11.07;1.70;;;11.70;99.90;;;;;;5095969;28;20103;-70
2023/12/29 11:16:30;;;;;;;2.10;0.88;;;11.70;99.90;;;;;;5095809;28;20103;-71
2023/12/29 11:18:57;;;;;;;3.10;0.82;;;11.70;99.90;;;;;;5101090;28;20025;-69
2023/12/29 11:21:27;;;;;;;9.13;1.48;;;11.80;99.90;;;;;;5112100;28;20034;-69
2023/12/29 11:23:53;;;;;;;0.65;0.65;;;11.80;99.90;;;;;;5095486;28;20391;-70
2023/12/29 11:26:19;;;;;;;3.53;2.53;;;11.90;99.90;;;;;;5113489;28;20028;-71
2023/12/29 11:28:50;;;;;;;11.98;0.82;;;11.90;99.90;;;;;;5094809;28;20397;-70
2023/12/29 11:31:19;;;;;;;4.43;2.13;;;11.90;99.90;;;;;;5090907;28;20109;-70
2023/12/29 11:33:56;;;;;;;2.13;0.60;;;11.90;99.90;;;;;;5113348;28;20027;-68
2023/12/29 11:36:32;;;;;;;5.75;0.70;;;12.00;99.90;;;;;;5113284;28;20035;-70
2023/12/29 11:39:19;;;;;;;2.30;0.63;;;12.00;99.90;;;;;;5113704;28;20476;-69
2023/12/29 11:42:12;;;;;;;6.70;0.95;;;12.00;99.90;;;;;;5113114;28;20028;-69
2023/12/29 11:44:38;;;;;;;0.17;0.17;;;12.00;99.90;;;;;;5113195;28;20425;-69
2023/12/29 11:47:04;;;;;;;6.28;1.30;;;11.90;99.90;;;;;;5112952;28;20038;-69
2023/12/29 11:50:00;;;;;;;5.47;1.13;;;11.90;99.90;;;;;;5113529;28;20043;-68
2023/12/29 11:52:38;;;;;;;0.00;0.00;;;12.00;99.90;;;;;;5108892;28;20058;-69
2023/12/29 11:55:31;;;;;;;6.85;0.73;;;12.10;99.90;;;;;;5112935;28;20393;-68
2023/12/29 11:57:57;;;;;;;0.10;0.10;;;12.10;99.90;;;;;;5113137;28;20127;-70
2023/12/29 12:00:43;;;;;;;1.92;0.98;;;12.20;99.90;;;;;;5098862;28;20020;-69
2023/12/29 12:03:24;;;;;;;4.53;1.08;;;12.20;99.90;;;;;;5113026;28;20486;-69
2023/12/29 12:05:51;;;;;;;5.18;1.23;;;12.20;99.90;;;;;;5085559;28;20084;-69
2023/12/29 12:08:37;;;;;;;7.13;1.35;;;12.10;99.90;;;;;;5113329;28;20107;-70
2023/12/29 12:11:29;;;;;;;9.30;1.08;;;12.10;99.90;;;;;;5113024;28;20031;-68
2023/12/29 12:13:55;;;;;;;4.70;1.23;;;12.10;99.90;;;;;;5111888;28;20046;-69
2023/12/29 12:16:46;;;;;;;2.80;0.40;;;12.10;99.90;;;;;;5112873;28;20036;-69
2023/12/29 12:19:12;;;;;;;0.00;0.00;;;12.10;99.90;;;;;;5098564;28;20028;-69
2023/12/29 12:21:38;;;;;;;0.17;0.15;;;12.30;99.90;;;;;;5112864;28;20036;-69
2023/12/29 12:24:05;;;;;;;3.88;0.88;;;12.30;99.90;;;;;;5112743;28;20072;-69
2023/12/29 12:26:31;;;;;;;2.97;0.70;;;12.30;99.90;;;;;;5112847;28;20051;-70
2023/12/29 12:28:58;;;;;;;0.20;0.20;;;12.20;99.90;;;;;;5113100;28;20380;-70
2023/12/29 12:31:23;;;;;;;0.20;0.20;;;12.20;99.90;;;;;;5112581;28;20114;-71
2023/12/29 12:33:56;;;;;;;2.20;0.70;;;12.20;99.90;;;;;;5112852;28;20148;-70
2023/12/29 12:36:22;;;;;;;1.20;0.60;;;12.20;99.90;;;;;;5112733;28;20082;-69
2023/12/29 12:38:53;;;;;;;1.08;0.32;;;12.20;99.90;;;;;;5111867;28;20020;-69
2023/12/29 12:41:23;;;;;;;1.95;0.52;;;12.10;99.90;;;;;;5112214;28;20024;-70
2023/12/29 12:44:08;;;;;;;0.10;0.10;;;12.20;99.90;;;;;;5092243;28;20016;-69
2023/12/29 12:46:39;;;;;;;1.13;1.00;;;12.10;99.90;;;;;;5108186;28;20027;-70
2023/12/29 12:49:05;;;;;;;5.30;0.55;;;12.00;99.90;;;;;;5112902;28;20384;-71